Time;durP1;ratioP1;P1;durP2;ratioP2;P2;SDS_P1;SDS_P2;PMS_P1;PMS_P2;Temp;Humidity;BMP_temperature;BMP_pressure;BME280_temperature;BME280_humidity;BME280_pressure;Samples;Min_cycle;Max_cycle;Signal;HPM_P1;HPM_P2
2022/09/26 00:00:09;;;;;;;4.50;3.97;;;;;;;11.62;100.00;95827.00;5030045;28;104264;-66
2022/09/26 00:02:42;;;;;;;3.87;3.57;;;;;;;11.61;100.00;95836.06;5034156;28;101839;-66
2022/09/26 00:05:10;;;;;;;3.83;3.60;;;;;;;11.58;100.00;95825.91;5029695;28;105728;-66
2022/09/26 00:07:37;;;;;;;3.70;3.50;;;;;;;11.58;100.00;95831.22;5030776;28;101923;-66
2022/09/26 00:10:08;;;;;;;3.70;3.43;;;;;;;11.57;100.00;95830.44;5030529;28;104774;-66
2022/09/26 00:12:35;;;;;;;5.60;3.97;;;;;;;11.53;100.00;95828.56;5031192;28;102807;-66
2022/09/26 00:15:02;;;;;;;4.33;4.03;;;;;;;11.56;100.00;95823.50;5031456;28;101882;-66
2022/09/26 00:17:29;;;;;;;3.97;3.67;;;;;;;11.60;100.00;95826.44;5031812;27;102842;-66
2022/09/26 00:19:55;;;;;;;4.27;3.97;;;;;;;11.53;100.00;95818.75;5030954;27;102588;-66
2022/09/26 00:22:22;;;;;;;4.17;3.87;;;;;;;11.53;100.00;95818.75;5031785;27;101801;-66
2022/09/26 00:24:50;;;;;;;3.50;3.20;;;;;;;11.47;100.00;95813.69;5032941;28;105282;-65
2022/09/26 00:27:19;;;;;;;3.83;3.60;;;;;;;11.52;100.00;95811.00;5030408;28;101930;-66
2022/09/26 00:29:47;;;;;;;2.90;2.70;;;;;;;11.55;100.00;95805.16;5030370;28;105026;-66
2022/09/26 00:32:14;;;;;;;3.27;3.07;;;;;;;11.52;100.00;95814.47;5029795;27;103235;-65
2022/09/26 00:34:41;;;;;;;3.30;3.00;;;;;;;11.56;100.00;95807.53;5029917;28;102552;-66
2022/09/26 00:37:08;;;;;;;3.00;2.80;;;;;;;11.52;100.00;95811.00;5030080;28;105237;-66
2022/09/26 00:39:36;;;;;;;2.90;2.73;;;;;;;11.55;100.00;95813.16;5029244;28;105536;-66
2022/09/26 00:42:02;;;;;;;2.87;2.67;;;;;;;11.55;100.00;95813.16;5030154;28;101881;-66
2022/09/26 00:44:46;;;;;;;2.50;2.40;;;;;;;11.47;100.00;95806.50;5029895;28;104951;-66
2022/09/26 00:47:22;;;;;;;2.80;2.60;;;;;;;11.49;100.00;95806.22;5032583;28;105496;-66
2022/09/26 00:49:51;;;;;;;2.70;1.97;;;;;;;11.40;100.00;95805.97;5029945;28;103624;-66
2022/09/26 00:52:21;;;;;;;2.07;1.90;;;;;;;11.44;100.00;95803.59;5028663;28;103083;-66
2022/09/26 00:54:51;;;;;;;2.30;2.20;;;;;;;11.46;100.00;95796.13;5029456;28;101878;-66
2022/09/26 00:57:22;;;;;;;2.20;2.10;;;;;;;11.47;100.00;95798.53;5029597;28;104607;-66
2022/09/26 00:59:55;;;;;;;2.97;1.67;;;;;;;11.42;100.00;95797.72;5029253;28;105479;-66
2022/09/26 01:02:24;;;;;;;1.80;1.70;;;;;;;11.47;100.00;95779.06;5029673;28;102118;-66
2022/09/26 01:04:52;;;;;;;1.83;1.73;;;;;;;11.42;100.00;95784.41;5029345;28;104706;-66
2022/09/26 01:07:22;;;;;;;1.93;1.70;;;;;;;11.46;100.00;95785.47;5029152;28;105011;-66
2022/09/26 01:09:49;;;;;;;2.40;2.20;;;;;;;11.43;100.00;95786.81;5033091;28;101707;-66
2022/09/26 01:12:17;;;;;;;2.07;1.87;;;;;;;11.40;100.00;95779.34;5028905;28;105044;-66
2022/09/26 01:14:46;;;;;;;1.90;1.80;;;;;;;11.42;100.00;95771.09;5029222;28;101961;-66
2022/09/26 01:17:16;;;;;;;3.07;1.83;;;;;;;11.35;100.00;95779.34;5029158;28;105448;-66
2022/09/26 01:19:55;;;;;;;2.50;1.70;;;;;;;11.40;100.00;95773.25;5028704;28;105729;-66
2022/09/26 01:22:50;;;;;;;2.00;1.90;;;;;;;11.36;100.00;95775.66;5029419;28;101886;-66
2022/09/26 01:25:24;;;;;;;3.27;2.20;;;;;;;11.30;100.00;95773.25;5029286;28;104833;-66
2022/09/26 01:28:04;;;;;;;1.80;1.70;;;;;;;11.36;100.00;95769.50;5028797;28;103921;-66
2022/09/26 01:30:42;;;;;;;2.03;1.70;;;;;;;11.34;100.00;95761.78;5033022;28;102233;-66
2022/09/26 01:33:45;;;;;;;1.80;1.70;;;;;;;11.29;100.00;95769.78;5028554;28;105642;-66
2022/09/26 01:36:39;;;;;;;1.50;1.40;;;;;;;11.22;100.00;95763.13;4982592;28;101964;-66
2022/09/26 01:39:22;;;;;;;1.50;1.40;;;;;;;11.26;100.00;95756.22;5019169;28;104971;-66
2022/09/26 01:41:58;;;;;;;1.43;1.43;;;;;;;11.28;100.00;95759.44;5028237;28;105397;-66
2022/09/26 01:44:33;;;;;;;1.60;1.50;;;;;;;11.32;100.00;95755.94;5029077;28;101969;-66
2022/09/26 01:47:09;;;;;;;1.50;1.50;;;;;;;11.34;100.00;95758.34;5029081;28;105529;-66
2022/09/26 01:49:47;;;;;;;1.70;1.60;;;;;;;11.31;100.00;95757.03;5028163;28;105300;-66
2022/09/26 01:52:18;;;;;;;1.80;1.70;;;;;;;11.25;100.00;95752.78;5028391;28;101937;-66
2022/09/26 01:54:51;;;;;;;1.70;1.60;;;;;;;11.25;100.00;95762.63;5031577;28;104785;-66
2022/09/26 01:57:28;;;;;;;1.47;1.47;;;;;;;11.21;100.00;95762.38;5030267;28;101676;-66
2022/09/26 01:59:59;;;;;;;1.70;1.60;;;;;;;11.20;100.00;95760.78;5028797;28;105127;-66
2022/09/26 02:02:34;;;;;;;1.77;1.67;;;;;;;11.22;100.00;95763.13;5028298;28;105297;-66
2022/09/26 02:05:07;;;;;;;1.90;1.80;;;;;;;11.24;100.00;95753.03;5028837;28;101997;-66
2022/09/26 02:07:39;;;;;;;2.20;1.97;;;;;;;11.22;100.00;95760.47;5028970;28;106227;-66
2022/09/26 02:10:13;;;;;;;1.97;1.87;;;;;;;11.22;100.00;95753.31;5028081;28;104992;-66
2022/09/26 02:12:44;;;;;;;1.73;1.63;;;;;;;11.22;100.00;95763.13;5028807;28;101849;-66
2022/09/26 02:15:16;;;;;;;3.57;1.60;;;;;;;11.25;100.00;95759.97;5030093;27;102763;-66
2022/09/26 02:17:49;;;;;;;1.70;1.60;;;;;;;11.28;100.00;95754.09;5031303;28;106079;-66
2022/09/26 02:20:24;;;;;;;1.80;1.70;;;;;;;11.28;100.00;95754.09;5028923;28;105292;-66
2022/09/26 02:22:51;;;;;;;2.10;2.00;;;;;;;11.30;100.00;95754.63;5028056;28;104986;-66
2022/09/26 02:25:19;;;;;;;1.90;1.80;;;;;;;11.33;100.00;95752.22;5028592;28;101930;-66
2022/09/26 02:27:46;;;;;;;1.80;1.70;;;;;;;11.37;100.00;95752.47;5028535;28;105528;-66
2022/09/26 02:30:13;;;;;;;3.73;2.37;;;;;;;11.38;100.00;95751.41;5027665;28;105372;-66
2022/09/26 02:32:41;;;;;;;2.53;2.43;;;;;;;11.37;100.00;95752.47;5028276;28;101981;-66
2022/09/26 02:35:53;;;;;;;2.53;2.30;;;;;;;11.38;100.00;95759.38;5011812;28;103537;-66
2022/09/26 02:38:04;;;;;;;2.30;2.20;;;;;;;11.34;100.00;95753.81;5027514;28;105640;-66
2022/09/26 02:40:41;;;;;;;2.30;2.20;;;;;;;11.37;100.00;95747.16;5031996;28;102043;-66
2022/09/26 02:43:39;;;;;;;2.93;2.10;;;;;;;11.29;100.00;95747.72;5027539;28;105395;-66
2022/09/26 02:46:22;;;;;;;2.10;2.00;;;;;;;11.28;100.00;95752.22;5028210;28;102005;-66
2022/09/26 02:49:04;;;;;;;2.63;2.43;;;;;;;11.29;100.00;95753.81;5028052;28;104766;-66
2022/09/26 02:51:48;;;;;;;2.10;2.00;;;;;;;11.32;100.00;95749.81;5027617;28;105764;-66
2022/09/26 02:54:26;;;;;;;2.00;1.90;;;;;;;11.27;100.00;95753.31;5028296;28;101834;-66
2022/09/26 02:57:11;;;;;;;2.00;1.90;;;;;;;11.32;100.00;95755.94;5031581;28;104718;-66
2022/09/26 02:59:49;;;;;;;1.90;1.80;;;;;;;11.32;100.00;95750.63;5030913;28;105234;-66
2022/09/26 03:02:21;;;;;;;2.13;1.77;;;;;;;11.31;100.00;95746.38;5031749;28;102350;-66
2022/09/26 03:05:11;;;;;;;2.17;1.90;;;;;;;11.31;100.00;95746.38;5034299;28;105320;-66
2022/09/26 03:07:45;;;;;;;1.70;1.60;;;;;;;11.26;100.00;95749.03;5031676;28;102004;-66
2022/09/26 03:10:14;;;;;;;1.70;1.60;;;;;;;11.16;100.00;95741.06;5031323;28;103701;-66
2022/09/26 03:12:44;;;;;;;1.47;1.37;;;;;;;11.15;100.00;95752.78;5030714;28;105165;-67
2022/09/26 03:15:13;;;;;;;1.37;1.27;;;;;;;11.13;100.00;95743.50;5031315;28;101944;-66
2022/09/26 03:17:47;;;;;;;1.40;1.40;;;;;;;11.11;100.00;95745.59;5031178;28;104963;-67
2022/09/26 03:20:18;;;;;;;1.27;1.27;;;;;;;11.08;100.00;95741.63;5030642;28;105057;-66
2022/09/26 03:22:47;;;;;;;1.43;1.33;;;;;;;11.10;100.00;95744.00;5031100;28;101766;-66
2022/09/26 03:25:18;;;;;;;1.20;1.20;;;;;;;11.08;100.00;95746.16;5031250;28;104795;-66
2022/09/26 03:27:53;;;;;;;1.23;1.23;;;;;;;11.13;100.00;95743.50;5033900;28;101864;-66
2022/09/26 03:30:22;;;;;;;1.57;1.47;;;;;;;11.10;100.00;95744.00;5030938;28;104839;-66
2022/09/26 03:33:08;;;;;;;1.43;1.33;;;;;;;11.13;100.00;95748.81;5028995;28;102250;-66
2022/09/26 03:35:36;;;;;;;1.40;1.40;;;;;;;11.16;100.00;95749.06;5031104;28;101957;-66
2022/09/26 03:38:04;;;;;;;2.70;1.53;;;;;;;11.15;100.00;95738.69;5030841;28;104087;-66
2022/09/26 03:40:36;;;;;;;1.47;1.37;;;;;;;11.16;100.00;95750.91;5030582;28;103630;-66
2022/09/26 03:43:32;;;;;;;1.47;1.40;;;;;;;11.17;100.00;95736.56;5026389;28;101991;-66
2022/09/26 03:46:03;;;;;;;1.60;1.50;;;;;;;11.19;100.00;95743.22;5030626;28;105108;-66
2022/09/26 03:48:30;;;;;;;1.47;1.40;;;;;;;11.19;100.00;95742.41;5033786;28;105137;-66
2022/09/26 03:51:02;;;;;;;1.60;1.50;;;;;;;11.18;100.00;95738.16;5030982;28;104795;-66
2022/09/26 03:53:33;;;;;;;1.53;1.43;;;;;;;11.10;100.00;95733.38;5029696;28;104865;-67
2022/09/26 03:56:06;;;;;;;1.80;1.70;;;;;;;11.11;100.00;95732.28;5030899;28;102095;-66
2022/09/26 03:58:34;;;;;;;1.67;1.57;;;;;;;11.10;100.00;95730.72;5030639;28;104917;-66
2022/09/26 04:01:06;;;;;;;2.37;1.80;;;;;;;11.17;100.00;95729.38;5030091;28;105438;-67
2022/09/26 04:03:35;;;;;;;1.70;1.60;;;;;;;11.17;100.00;95724.03;5030463;28;101908;-67
2022/09/26 04:06:07;;;;;;;2.03;1.87;;;;;;;11.14;100.00;95721.13;5029371;27;105011;-66
2022/09/26 04:08:37;;;;;;;1.80;1.70;;;;;;;11.14;100.00;95721.13;5013760;28;105034;-66
2022/09/26 04:11:06;;;;;;;1.90;1.80;;;;;;;11.09;100.00;95726.47;5033727;28;101836;-66
2022/09/26 04:13:34;;;;;;;1.97;1.87;;;;;;;11.06;100.00;95725.13;5029838;28;105153;-66
2022/09/26 04:16:04;;;;;;;2.20;2.10;;;;;;;11.11;100.00;95719.00;5030355;28;102225;-65
2022/09/26 04:18:31;;;;;;;2.10;2.00;;;;;;;11.09;100.00;95716.63;5030358;28;104887;-66
2022/09/26 04:20:59;;;;;;;2.23;2.13;;;;;;;11.06;100.00;95719.03;5029749;28;103891;-66
2022/09/26 04:23:27;;;;;;;2.43;1.87;;;;;;;11.05;100.00;95712.09;5030108;28;101975;-66
2022/09/26 04:25:56;;;;;;;1.63;1.47;;;;;;;11.05;100.00;95720.06;5029974;28;105358;-66
2022/09/26 04:28:24;;;;;;;1.73;1.63;;;;;;;11.04;100.00;95711.31;5029683;28;105858;-66
2022/09/26 04:30:51;;;;;;;1.50;1.40;;;;;;;11.05;100.00;95704.91;5030228;28;101996;-66
2022/09/26 04:33:20;;;;;;;1.77;1.67;;;;;;;11.07;100.00;95707.31;5033009;28;104896;-66
2022/09/26 04:36:05;;;;;;;1.63;1.53;;;;;;;11.05;100.00;95704.91;5015661;28;101782;-66
2022/09/26 04:38:32;;;;;;;1.50;1.40;;;;;;;11.03;100.00;95703.59;5029253;28;105049;-66
2022/09/26 04:41:05;;;;;;;1.67;1.57;;;;;;;11.02;100.00;95704.66;5019520;28;104715;-66
2022/09/26 04:43:33;;;;;;;2.27;1.80;;;;;;;10.99;100.00;95697.19;5009949;28;102009;-66
2022/09/26 04:46:06;;;;;;;1.63;1.53;;;;;;;11.03;100.00;95691.09;5009712;28;104760;-66
2022/09/26 04:48:35;;;;;;;3.00;2.50;;;;;;;10.96;100.00;95679.13;5011863;28;104745;-65
2022/09/26 04:51:17;;;;;;;2.57;2.37;;;;;;;10.98;100.00;95682.31;5009570;28;102023;-65
2022/09/26 04:53:45;;;;;;;2.70;2.13;;;;;;;10.95;100.00;95682.88;5008958;28;104932;-65
2022/09/26 04:56:21;;;;;;;2.20;2.00;;;;;;;10.94;100.00;95687.38;5012462;28;104031;-66
2022/09/26 04:58:48;;;;;;;3.40;2.77;;;;;;;10.94;100.00;95686.56;5009607;28;105422;-66
2022/09/26 05:01:19;;;;;;;4.73;2.10;;;;;;;10.83;100.00;95683.16;5008944;28;105480;-66
2022/09/26 05:04:02;;;;;;;1.90;1.80;;;;;;;10.84;100.00;95681.28;5009310;28;101829;-66
2022/09/26 05:06:31;;;;;;;3.63;2.30;;;;;;;10.88;100.00;95687.66;5009354;28;104764;-66
2022/09/26 05:09:01;;;;;;;2.87;2.10;;;;;;;10.81;100.00;95684.47;5008732;28;105110;-66
2022/09/26 05:11:53;;;;;;;2.17;1.97;;;;;;;10.89;100.00;95684.72;5009870;28;102031;-66
2022/09/26 05:14:20;;;;;;;2.07;1.83;;;;;;;10.90;100.00;95682.88;5009380;28;103963;-66
2022/09/26 05:16:48;;;;;;;1.60;1.50;;;;;;;10.87;100.00;95676.22;5008139;28;104860;-66
2022/09/26 05:19:16;;;;;;;1.70;1.60;;;;;;;10.96;100.00;95685.25;5012577;28;102175;-66
2022/09/26 05:22:01;;;;;;;2.80;2.20;;;;;;;11.00;100.00;95680.16;5008672;28;102833;-66
2022/09/26 05:27:17;;;;;;;1.80;1.70;;;;;;;11.00;100.00;95675.66;5008859;28;104088;-61
2022/09/26 05:29:44;;;;;;;2.57;2.30;;;;;;;11.03;100.00;95682.31;5008601;28;105619;-61
2022/09/26 05:32:12;;;;;;;3.80;3.20;;;;;;;11.04;100.00;95686.56;5009031;28;102007;-61
2022/09/26 05:34:40;;;;;;;2.50;2.30;;;;;;;10.98;100.00;95679.66;5020230;28;104956;-61
2022/09/26 05:37:12;;;;;;;4.80;2.57;;;;;;;11.03;100.00;95690.28;5028504;28;105257;-61
2022/09/26 05:42:25;;;;;;;3.77;3.47;;;;;;;11.10;100.00;95686.28;5008423;28;105484;-61
2022/09/26 05:44:52;;;;;;;4.20;3.80;;;;;;;11.11;100.00;95679.06;5008607;28;101861;-61
2022/09/26 05:47:20;;;;;;;3.50;3.20;;;;;;;11.14;100.00;95684.69;5008923;28;105154;-61
2022/09/26 05:49:48;;;;;;;4.20;3.80;;;;;;;11.12;100.00;95689.47;5008191;28;103688;-61
2022/09/26 05:52:18;;;;;;;4.20;3.90;;;;;;;11.18;100.00;95687.59;5008407;28;101763;-61
2022/09/26 05:54:45;;;;;;;4.50;4.20;;;;;;;11.28;100.00;95683.03;5008477;28;105475;-61
2022/09/26 05:57:33;;;;;;;4.23;3.90;;;;;;;11.30;100.00;95680.09;5009062;28;103866;-61
2022/09/26 06:00:03;;;;;;;4.20;3.90;;;;;;;11.37;100.00;95681.41;5008724;28;101769;-61
2022/09/26 06:02:55;;;;;;;4.40;4.00;;;;;;;11.40;100.00;95680.84;5013122;28;102143;-61
2022/09/26 06:05:29;;;;;;;4.67;3.63;;;;;;;11.39;100.00;95679.25;5008781;28;102092;-61
2022/09/26 06:08:16;;;;;;;4.27;3.83;;;;;;;11.40;100.00;95685.38;5008177;28;104781;-61
2022/09/26 06:10:45;;;;;;;4.20;3.63;;;;;;;11.51;100.00;95686.94;5007833;28;105303;-61
2022/09/26 06:13:14;;;;;;;4.13;3.70;;;;;;;11.46;100.00;95686.97;5008673;28;101952;-61
2022/09/26 06:15:48;;;;;;;4.10;3.80;;;;;;;11.53;100.00;95685.59;5008569;28;105391;-61
2022/09/26 06:18:16;;;;;;;4.03;3.70;;;;;;;11.50;100.00;95686.13;5007778;28;105314;-61
2022/09/26 06:20:43;;;;;;;4.03;3.73;;;;;;;11.57;100.00;95692.00;5008295;28;101995;-61
2022/09/26 06:23:12;;;;;;;3.77;3.47;;;;;;;11.60;100.00;95693.31;5008317;28;105136;-61
2022/09/26 06:25:40;;;;;;;4.13;3.73;;;;;;;11.63;100.00;95684.78;5011302;28;105086;-61
2022/09/26 06:28:07;;;;;;;4.20;3.80;;;;;;;11.69;100.00;95687.16;5008037;28;104788;-61
2022/09/26 06:30:37;;;;;;;4.70;4.20;;;;;;;11.69;100.00;95678.38;5010158;28;105220;-61
2022/09/26 06:33:13;;;;;;;6.33;5.40;;;;;;;11.65;100.00;95680.78;5011907;28;101929;-61
2022/09/26 06:36:01;;;;;;;5.60;4.47;;;;;;;11.75;100.00;95682.59;5011808;28;105065;-61
2022/09/26 06:38:34;;;;;;;4.07;3.77;;;;;;;11.83;100.00;95676.69;5011080;28;102750;-61
2022/09/26 06:41:02;;;;;;;3.67;3.37;;;;;;;11.89;100.00;95673.72;5011482;28;101867;-61
2022/09/26 06:43:30;;;;;;;5.10;4.17;;;;;;;11.98;100.00;95676.59;5011787;28;105336;-62
2022/09/26 06:46:11;;;;;;;3.63;3.33;;;;;;;12.08;100.00;95681.88;5009232;28;102485;-61
2022/09/26 06:48:49;;;;;;;3.73;3.43;;;;;;;12.21;100.00;95676.72;5015097;28;101926;-61
2022/09/26 06:51:21;;;;;;;7.50;6.33;;;;;;;12.12;100.00;95680.25;5010538;28;104004;-61
2022/09/26 06:53:48;;;;;;;3.60;3.30;;;;;;;12.10;100.00;95672.53;5011166;28;102089;-62
2022/09/26 06:56:20;;;;;;;3.00;1.80;;;;;;;12.12;100.00;95666.91;5011719;28;104786;-61
2022/09/26 06:58:48;;;;;;;2.77;1.97;;;;;;;12.27;100.00;95664.16;5010865;28;105496;-61
2022/09/26 07:01:17;;;;;;;2.43;2.07;;;;;;;12.24;100.00;95662.84;5011462;28;101999;-61
2022/09/26 07:03:51;;;;;;;4.27;1.80;;;;;;;12.33;100.00;95658.50;5011422;28;104914;-61
2022/09/26 07:06:33;;;;;;;1.97;1.87;;;;;;;12.32;100.00;95664.91;5010643;28;105035;-61
2022/09/26 07:09:01;;;;;;;3.07;2.23;;;;;;;12.45;100.00;95666.13;5011589;28;101864;-61
2022/09/26 07:11:51;;;;;;;3.47;2.20;;;;;;;12.35;100.00;95660.88;5015089;28;103494;-61
2022/09/26 07:14:18;;;;;;;2.67;1.87;;;;;;;12.40;100.00;95660.84;5010836;28;101979;-61
2022/09/26 07:16:56;;;;;;;1.80;1.60;;;;;;;12.46;100.00;95667.72;5011221;28;105012;-61
2022/09/26 07:19:52;;;;;;;3.73;1.87;;;;;;;12.39;100.00;95664.59;5009664;28;102514;-61
2022/09/26 07:22:46;;;;;;;3.40;2.63;;;;;;;12.33;100.00;95668.38;5010924;28;101881;-61
2022/09/26 07:25:14;;;;;;;2.40;1.60;;;;;;;12.23;100.00;95666.59;5011099;28;103785;-61
2022/09/26 07:27:41;;;;;;;1.60;1.50;;;;;;;12.28;100.00;95661.22;5010639;28;105115;-61
2022/09/26 07:30:10;;;;;;;2.03;1.40;;;;;;;12.13;100.00;95665.84;5010902;28;101808;-61
2022/09/26 07:32:49;;;;;;;2.10;1.70;;;;;;;12.09;100.00;95662.94;5011026;28;104977;-61
2022/09/26 07:35:56;;;;;;;1.70;1.60;;;;;;;12.18;100.00;95671.13;5013852;28;104070;-61
2022/09/26 07:38:24;;;;;;;1.83;1.73;;;;;;;12.17;100.00;95672.22;5011152;28;104847;-61
2022/09/26 07:40:53;;;;;;;2.63;1.80;;;;;;;12.19;100.00;95667.41;5009891;28;105137;-61
2022/09/26 07:43:21;;;;;;;2.03;1.80;;;;;;;12.17;100.00;95656.22;5010724;28;102012;-61
2022/09/26 07:51:42;;;;;;;4.90;3.60;;;;;;;12.29;100.00;95670.00;5012253;28;101837;-61
2022/09/26 07:54:14;;;;;;;4.10;3.10;;;;;;;12.33;100.00;95673.69;5009887;28;103534;-61
2022/09/26 07:57:00;;;;;;;3.23;2.80;;;;;;;12.38;100.00;95668.34;5011565;28;102399;-61
2022/09/26 07:59:37;;;;;;;3.97;3.57;;;;;;;12.52;100.00;95667.41;5010443;28;105012;-61
2022/09/26 08:02:32;;;;;;;3.30;3.00;;;;;;;12.55;100.00;95672.19;5007756;28;103570;-61
2022/09/26 08:05:03;;;;;;;2.70;2.33;;;;;;;12.68;100.00;95671.53;5010429;28;101902;-61
2022/09/26 08:07:34;;;;;;;3.97;3.20;;;;;;;12.70;100.00;95666.72;5010628;28;104796;-61
2022/09/26 08:10:19;;;;;;;2.40;2.20;;;;;;;12.72;100.00;95669.09;5009807;28;104186;-61
2022/09/26 08:13:21;;;;;;;2.73;2.53;;;;;;;12.90;100.00;95665.72;5010120;28;102110;-61
2022/09/26 08:16:05;;;;;;;3.20;2.90;;;;;;;12.95;100.00;95668.34;5008585;28;102248;-61
2022/09/26 08:18:37;;;;;;;4.80;3.37;;;;;;;12.74;100.00;95669.63;5009781;28;105183;-61
2022/09/26 08:21:07;;;;;;;3.40;2.50;;;;;;;12.64;100.00;95669.72;5013138;28;101879;-61
2022/09/26 08:23:35;;;;;;;2.90;2.70;;;;;;;12.81;100.00;95672.78;5009697;28;105537;-61
2022/09/26 08:26:37;;;;;;;5.40;4.73;;;;;;;12.85;100.00;95666.56;5009938;28;101837;-61
2022/09/26 08:29:26;;;;;;;2.93;2.70;;;;;;;12.90;100.00;95665.72;5010053;28;104819;-61
2022/09/26 08:31:55;;;;;;;2.60;2.40;;;;;;;12.91;100.00;95664.66;5009342;28;105305;-61
2022/09/26 08:34:22;;;;;;;2.13;2.03;;;;;;;12.80;100.00;95663.19;5010142;28;102002;-61
2022/09/26 08:37:11;;;;;;;2.70;2.40;;;;;;;12.81;100.00;95654.09;5010994;28;103697;-61
2022/09/26 08:39:54;;;;;;;3.77;2.20;;;;;;;12.92;100.00;95652.91;5017858;28;103986;-61
2022/09/26 08:42:56;;;;;;;1.90;1.80;;;;;;;13.27;100.00;95649.88;5008014;28;101921;-61
2022/09/26 08:48:57;;;;;;;2.97;2.77;;;;;;;13.38;100.00;95644.16;5009793;28;102312;-61
2022/09/26 08:51:29;;;;;;;4.73;4.10;;;;;;;13.63;100.00;95640.38;5009504;28;105078;-61
2022/09/26 08:54:05;;;;;;;3.27;2.80;;;;;;;13.72;100.00;95639.44;5008101;28;105665;-61
2022/09/26 08:56:37;;;;;;;2.50;2.30;;;;;;;13.78;100.00;95634.78;5009721;28;101813;-61
2022/09/26 08:59:09;;;;;;;2.10;2.00;;;;;;;13.72;100.00;95635.94;5009414;28;105335;-61
2022/09/26 09:01:42;;;;;;;1.97;1.87;;;;;;;13.69;100.00;95637.31;5008764;28;105010;-61
2022/09/26 09:04:25;;;;;;;2.10;1.90;;;;;;;13.69;100.00;95623.19;5009451;28;102031;-61
2022/09/26 09:07:02;;;;;;;2.90;2.70;;;;;;;13.65;100.00;95622.97;5009587;28;105338;-61
2022/09/26 09:09:31;;;;;;;2.03;1.93;;;;;;;13.71;100.00;95631.69;5012131;28;105238;-61
2022/09/26 09:12:46;;;;;;;1.93;1.83;;;;;;;13.71;100.00;95621.00;5009935;28;102395;-61
2022/09/26 09:15:49;;;;;;;1.50;1.40;;;;;;;13.62;100.00;95620.09;5008534;28;105453;-61
2022/09/26 09:18:54;;;;;;;3.20;2.90;;;;;;;13.57;100.00;95610.25;5009315;28;101840;-61
2022/09/26 09:21:53;;;;;;;1.93;1.80;;;;;;;13.51;100.00;95600.72;5009059;28;104898;-61
2022/09/26 09:24:48;;;;;;;3.90;3.50;;;;;;;13.57;100.00;95604.13;5008629;28;105639;-61
2022/09/26 09:27:24;;;;;;;2.17;1.97;;;;;;;13.68;100.00;95605.56;5009452;28;101996;-61
2022/09/26 09:30:24;;;;;;;2.20;2.10;;;;;;;13.78;100.00;95600.06;5009264;28;105245;-61
2022/09/26 09:32:58;;;;;;;2.00;1.80;;;;;;;14.22;100.00;95595.16;5009535;28;102637;-61
2022/09/26 09:35:44;;;;;;;1.87;1.40;;;;;;;14.34;100.00;95598.19;5012555;28;101824;-61
2022/09/26 09:38:39;;;;;;;2.10;2.00;;;;;;;14.61;100.00;95579.53;5008034;28;105586;-61
2022/09/26 09:41:20;;;;;;;2.00;1.90;;;;;;;14.90;100.00;95575.50;5009030;28;101845;-61
2022/09/26 09:43:49;;;;;;;4.37;2.50;;;;;;;15.19;100.00;95583.22;5008714;28;104750;-61
2022/09/26 09:46:21;;;;;;;2.37;2.17;;;;;;;15.29;100.00;95573.09;5008020;28;103188;-61
2022/09/26 09:48:50;;;;;;;2.40;2.20;;;;;;;15.11;100.00;95571.34;5008828;28;102063;-61
2022/09/26 09:51:36;;;;;;;1.87;1.77;;;;;;;15.67;100.00;95573.66;5008385;28;105130;-61
2022/09/26 09:54:23;;;;;;;4.60;2.60;;;;;;;16.20;100.00;95567.34;5007760;28;105801;-61
2022/09/26 09:57:26;;;;;;;3.77;2.37;;;;;;;15.96;100.00;95558.00;5008430;28;101894;-61
2022/09/26 10:00:05;;;;;;;3.27;3.07;;;;;;;16.01;100.00;95552.50;4953982;28;103929;-61
2022/09/26 10:02:51;;;;;;;3.60;3.30;;;;;;;15.86;100.00;95552.88;5016001;28;102469;-61
2022/09/26 10:05:36;;;;;;;2.03;1.60;;;;;;;15.58;100.00;95554.06;5031620;28;105207;-61
2022/09/26 10:08:04;;;;;;;2.13;1.97;;;;;;;15.39;100.00;95553.38;5031294;28;105472;-61
2022/09/26 10:10:58;;;;;;;3.47;2.73;;;;;;;15.36;100.00;95545.97;5031067;28;101761;-61
2022/09/26 10:13:54;;;;;;;3.27;2.80;;;;;;;15.31;100.00;95538.00;5032301;27;102675;-61
2022/09/26 10:17:20;;;;;;;2.40;2.20;;;;;;;15.37;100.00;95547.53;5030071;28;102216;-61
2022/09/26 10:19:58;;;;;;;1.90;1.80;;;;;;;15.75;100.00;95543.47;5032191;28;102221;-61
2022/09/26 10:22:31;;;;;;;2.13;1.77;;;;;;;15.86;100.00;95542.16;5035075;28;105728;-61
2022/09/26 10:25:07;;;;;;;2.07;1.97;;;;;;;15.44;100.00;95531.84;5032099;28;101813;-61
2022/09/26 10:27:38;;;;;;;2.07;1.77;;;;;;;15.95;100.00;95527.72;5032071;28;104964;-61
2022/09/26 10:30:24;;;;;;;1.93;1.83;;;;;;;16.43;100.00;95527.88;5031409;28;105534;-61
2022/09/26 10:32:54;;;;;;;2.40;2.20;;;;;;;16.94;100.00;95536.19;5032146;28;101981;-61
2022/09/26 10:35:42;;;;;;;1.70;1.60;;;;;;;17.07;100.00;95521.84;5032145;28;104782;-61
2022/09/26 10:38:20;;;;;;;1.70;1.60;;;;;;;17.47;100.00;95523.41;5031248;28;105171;-61
2022/09/26 10:40:53;;;;;;;1.80;1.70;;;;;;;17.47;100.00;95521.50;5031363;28;102285;-61
2022/09/26 10:43:29;;;;;;;2.00;1.80;;;;;;;17.31;100.00;95525.72;5015487;28;105004;-60
2022/09/26 10:46:09;;;;;;;1.93;1.83;;;;;;;17.08;100.00;95518.06;5034663;28;105132;-61
2022/09/26 10:49:00;;;;;;;1.67;1.57;;;;;;;17.26;100.00;95520.47;5030336;28;102001;-61
2022/09/26 10:51:36;;;;;;;1.83;1.73;;;;;;;17.22;100.00;95516.06;5029678;27;102430;-61
2022/09/26 10:54:09;;;;;;;2.43;1.80;;;;;;;17.29;100.00;95513.69;5031352;28;101891;-61
2022/09/26 10:56:42;;;;;;;1.60;1.50;;;;;;;18.17;100.00;95505.06;5031306;28;104870;-61
2022/09/26 10:59:13;;;;;;;3.50;1.33;;;;;;;18.36;100.00;95500.16;5032489;28;103182;-61
2022/09/26 11:01:45;;;;;;;1.60;1.50;;;;;;;18.10;100.00;95502.06;5031310;28;102016;-61
2022/09/26 11:05:55;;;;;;;1.40;1.40;;;;;;;18.12;100.00;95499.84;5031828;28;104210;-61
2022/09/26 11:07:34;;;;;;;1.73;1.63;;;;;;;17.98;100.00;95491.16;5031049;28;103981;-61
2022/09/26 11:10:17;;;;;;;1.30;1.20;;;;;;;17.62;100.00;95485.31;5035170;28;101838;-61
2022/09/26 11:12:58;;;;;;;1.60;1.40;;;;;;;18.03;100.00;95485.63;5030785;28;105720;-61
2022/09/26 11:15:27;;;;;;;1.37;1.37;;;;;;;18.20;100.00;95472.13;5030426;27;101959;-61
2022/09/26 11:17:57;;;;;;;1.50;1.40;;;;;;;18.60;100.00;95474.25;5031041;28;105183;-61
2022/09/26 11:20:45;;;;;;;1.33;1.17;;;;;;;17.72;100.00;95474.25;5031041;28;105330;-61
2022/09/26 11:23:21;;;;;;;1.70;1.60;;;;;;;17.60;100.00;95474.84;5030862;28;101795;-61
2022/09/26 11:25:58;;;;;;;1.40;1.30;;;;;;;17.78;100.00;95475.66;5013895;28;103980;-61
2022/09/26 11:28:30;;;;;;;1.20;1.20;;;;;;;18.30;100.00;95467.19;5030456;28;105392;-61
2022/09/26 11:31:24;;;;;;;1.93;1.70;;;;;;;17.69;100.00;95472.97;5030969;28;102034;-61
2022/09/26 11:34:15;;;;;;;1.80;1.70;;;;;;;17.41;100.00;95462.84;5033955;28;103583;-61
2022/09/26 11:37:25;;;;;;;2.43;1.70;;;;;;;17.43;100.00;95468.69;5031032;28;102124;-61
2022/09/26 11:40:05;;;;;;;1.43;1.33;;;;;;;17.14;100.00;95463.06;5030875;28;104641;-61
2022/09/26 11:42:43;;;;;;;1.63;1.53;;;;;;;17.19;100.00;95457.56;5030175;28;105824;-61
2022/09/26 11:45:19;;;;;;;1.70;1.60;;;;;;;17.00;100.00;95459.75;5030634;28;102023;-61
2022/09/26 11:48:47;;;;;;;2.00;1.40;;;;;;;16.75;100.00;95444.34;5037827;27;102370;-61
2022/09/26 11:51:51;;;;;;;1.63;1.53;;;;;;;16.51;100.00;95452.78;5015863;28;102760;-61
2022/09/26 11:54:48;;;;;;;1.30;1.20;;;;;;;15.86;100.00;95456.34;5030502;28;102299;-61
2022/09/26 11:57:33;;;;;;;1.83;1.20;;;;;;;15.28;100.00;95464.38;5011540;27;102512;-61
2022/09/26 12:00:10;;;;;;;2.20;1.20;;;;;;;14.66;100.00;95472.41;5034739;27;102533;-61
2022/09/26 12:03:20;;;;;;;0.93;0.93;;;;;;;14.25;100.00;95458.19;5029656;27;102980;-61
2022/09/26 12:06:17;;;;;;;0.90;0.90;;;;;;;14.26;100.00;95452.56;4983357;28;102919;-61
2022/09/26 12:09:15;;;;;;;0.80;0.80;;;;;;;14.26;100.00;95441.06;5012457;28;102152;-61
2022/09/26 12:11:52;;;;;;;1.03;0.90;;;;;;;14.31;100.00;95435.63;5012127;28;102465;-61
2022/09/26 12:14:35;;;;;;;2.03;0.70;;;;;;;14.29;100.00;95441.25;5010066;28;105809;-61